Time;durP1;ratioP1;P1;durP2;ratioP2;P2;SDS_P1;SDS_P2;PMS_P1;PMS_P2;Temp;Humidity;BMP_temperature;BMP_pressure;BME280_temperature;BME280_humidity;BME280_pressure;Samples;Min_cycle;Max_cycle;Signal;HPM_P1;HPM_P2
2021/03/29 00:00:16;;;;;;;22.98;12.15;;;;;;;;;;5013886;28;20026;-55
2021/03/29 00:02:43;;;;;;;22.70;12.93;;;;;;;;;;5014010;28;20033;-56
2021/03/29 00:05:09;;;;;;;23.38;12.30;;;;;;;;;;5013938;28;20088;-58
2021/03/29 00:07:37;;;;;;;22.25;12.60;;;;;;;;;;5014152;28;20393;-54
2021/03/29 00:10:08;;;;;;;19.42;11.50;;;;;;;;;;5013952;28;20080;-55
2021/03/29 00:12:35;;;;;;;21.45;12.25;;;;;;;;;;5013720;28;20018;-54
2021/03/29 00:15:02;;;;;;;20.90;11.02;;;;;;;;;;5013639;28;20030;-56
2021/03/29 00:17:28;;;;;;;18.40;10.43;;;;;;;;;;5013651;28;20145;-54
2021/03/29 00:19:54;;;;;;;21.80;11.65;;;;;;;;;;5013675;28;20120;-53
2021/03/29 00:22:21;;;;;;;26.42;13.18;;;;;;;;;;5013499;28;20673;-57
2021/03/29 00:24:47;;;;;;;21.90;11.75;;;;;;;;;;5013515;28;20417;-56
2021/03/29 00:27:14;;;;;;;18.48;11.00;;;;;;;;;;5013358;28;20159;-55
2021/03/29 00:29:40;;;;;;;14.82;9.02;;;;;;;;;;5013252;28;20037;-56
2021/03/29 00:32:07;;;;;;;19.58;10.82;;;;;;;;;;5013402;28;20034;-56
2021/03/29 00:34:34;;;;;;;26.20;13.60;;;;;;;;;;5013417;28;20061;-54
2021/03/29 00:37:01;;;;;;;18.95;10.68;;;;;;;;;;5013508;28;20045;-54
2021/03/29 00:39:28;;;;;;;18.05;10.77;;;;;;;;;;5013342;28;20052;-54
2021/03/29 00:41:55;;;;;;;19.63;11.15;;;;;;;;;;4995789;28;20485;-57
2021/03/29 00:44:21;;;;;;;20.67;10.88;;;;;;;;;;5013209;28;20014;-57
2021/03/29 00:46:48;;;;;;;21.15;11.77;;;;;;;;;;5013118;28;20080;-55
2021/03/29 00:49:15;;;;;;;19.95;10.48;;;;;;;;;;5013080;28;20481;-56
2021/03/29 00:51:42;;;;;;;15.88;9.45;;;;;;;;;;5013051;28;20052;-56
2021/03/29 00:54:09;;;;;;;16.48;9.63;;;;;;;;;;5012983;28;20033;-56
2021/03/29 00:56:35;;;;;;;19.80;9.88;;;;;;;;;;5012726;28;20416;-57
2021/03/29 00:59:02;;;;;;;16.88;9.73;;;;;;;;;;5013098;28;20517;-56
2021/03/29 01:01:30;;;;;;;15.18;9.45;;;;;;;;;;5012747;28;20034;-56
2021/03/29 01:04:00;;;;;;;16.33;9.63;;;;;;;;;;5012871;28;20026;-57
2021/03/29 01:06:28;;;;;;;16.63;9.52;;;;;;;;;;5012868;28;20422;-53
2021/03/29 01:09:02;;;;;;;16.55;8.90;;;;;;;;;;5012846;28;20030;-51
2021/03/29 01:11:29;;;;;;;14.90;8.27;;;;;;;;;;5012611;28;20029;-56
2021/03/29 01:13:57;;;;;;;15.38;9.15;;;;;;;;;;5012697;28;20506;-57
2021/03/29 01:16:26;;;;;;;16.17;9.35;;;;;;;;;;5012539;28;20032;-55
2021/03/29 01:18:53;;;;;;;13.38;8.45;;;;;;;;;;5012600;28;20030;-54
2021/03/29 01:21:34;;;;;;;14.65;9.50;;;;;;;;;;5012856;28;20034;-57
2021/03/29 01:24:03;;;;;;;19.42;9.15;;;;;;;;;;5012792;28;20030;-54
2021/03/29 01:26:32;;;;;;;18.90;9.10;;;;;;;;;;5012423;28;20022;-56
2021/03/29 01:28:58;;;;;;;15.52;9.45;;;;;;;;;;5012549;28;20025;-55
2021/03/29 01:31:24;;;;;;;14.25;8.95;;;;;;;;;;5012577;28;20377;-54
2021/03/29 01:33:51;;;;;;;18.13;9.20;;;;;;;;;;5012544;28;20028;-55
2021/03/29 01:36:18;;;;;;;13.20;7.80;;;;;;;;;;5012480;28;20030;-52
2021/03/29 01:38:45;;;;;;;14.73;8.02;;;;;;;;;;5012470;28;20030;-53
2021/03/29 01:41:12;;;;;;;12.30;7.82;;;;;;;;;;5012430;28;20042;-55
2021/03/29 01:43:38;;;;;;;11.65;7.40;;;;;;;;;;5012507;28;20488;-53
2021/03/29 01:46:04;;;;;;;19.10;8.88;;;;;;;;;;5012471;28;20421;-56
2021/03/29 01:48:31;;;;;;;14.25;8.38;;;;;;;;;;5012508;28;20034;-56
2021/03/29 01:50:57;;;;;;;12.27;8.15;;;;;;;;;;5012413;28;20034;-54
2021/03/29 01:53:25;;;;;;;17.08;9.85;;;;;;;;;;5012449;28;20022;-54
2021/03/29 01:55:52;;;;;;;17.88;9.32;;;;;;;;;;5012084;28;20026;-52
2021/03/29 01:58:19;;;;;;;14.95;8.55;;;;;;;;;;5012372;28;20036;-53
2021/03/29 02:00:53;;;;;;;12.80;8.30;;;;;;;;;;5012101;28;20539;-54
2021/03/29 02:03:20;;;;;;;14.85;8.25;;;;;;;;;;5012526;28;20022;-52
2021/03/29 02:05:46;;;;;;;13.75;7.38;;;;;;;;;;5012313;28;20034;-56
2021/03/29 02:08:12;;;;;;;15.70;8.80;;;;;;;;;;5274101;22;20088;-53
2021/03/29 02:10:40;;;;;;;13.77;7.90;;;;;;;;;;5015408;28;20029;-55
2021/03/29 02:13:10;;;;;;;17.52;10.02;;;;;;;;;;5015265;28;20018;-54
2021/03/29 02:15:37;;;;;;;18.02;10.98;;;;;;;;;;5015183;28;20030;-53
2021/03/29 02:18:05;;;;;;;21.75;11.57;;;;;;;;;;5015180;28;20065;-56
2021/03/29 02:20:35;;;;;;;19.88;10.82;;;;;;;;;;5015054;28;20018;-57
2021/03/29 02:23:02;;;;;;;20.38;11.02;;;;;;;;;;5014884;28;20522;-55
2021/03/29 02:25:30;;;;;;;21.70;11.88;;;;;;;;;;5014999;28;20477;-54
2021/03/29 02:27:57;;;;;;;21.88;11.65;;;;;;;;;;5014951;28;20033;-57
2021/03/29 02:30:29;;;;;;;22.35;12.40;;;;;;;;;;5014893;28;20092;-55
2021/03/29 02:32:56;;;;;;;22.73;11.63;;;;;;;;;;5014939;28;20555;-55
2021/03/29 02:35:24;;;;;;;22.20;12.15;;;;;;;;;;5014793;28;20465;-56
2021/03/29 02:37:53;;;;;;;20.55;10.50;;;;;;;;;;5014815;28;20032;-54
2021/03/29 02:40:20;;;;;;;14.30;9.05;;;;;;;;;;5014850;28;20121;-53
2021/03/29 02:42:50;;;;;;;15.13;9.25;;;;;;;;;;5015003;28;20061;-54
2021/03/29 02:45:17;;;;;;;13.82;8.73;;;;;;;;;;5014709;28;20022;-53
2021/03/29 02:47:45;;;;;;;12.75;9.00;;;;;;;;;;5014682;28;20084;-56
2021/03/29 02:50:22;;;;;;;17.17;9.57;;;;;;;;;;5014631;28;20022;-56
2021/03/29 02:52:53;;;;;;;16.45;9.18;;;;;;;;;;5014625;28;20029;-55
2021/03/29 02:55:19;;;;;;;17.00;9.85;;;;;;;;;;5014583;28;20022;-55
2021/03/29 02:57:46;;;;;;;13.40;7.90;;;;;;;;;;5014501;28;20026;-56
2021/03/29 03:00:17;;;;;;;13.73;8.23;;;;;;;;;;5014604;28;20092;-54
2021/03/29 03:02:44;;;;;;;13.63;7.75;;;;;;;;;;5014397;28;20049;-52
2021/03/29 03:05:11;;;;;;;15.98;9.07;;;;;;;;;;5014269;28;20029;-55
2021/03/29 03:07:38;;;;;;;15.35;8.55;;;;;;;;;;5014100;28;20065;-53
2021/03/29 03:10:06;;;;;;;14.43;9.05;;;;;;;;;;5014121;28;20148;-53
2021/03/29 03:12:32;;;;;;;13.15;7.95;;;;;;;;;;5014130;28;20034;-55
2021/03/29 03:14:58;;;;;;;15.93;7.80;;;;;;;;;;5014151;28;20022;-54
2021/03/29 03:17:24;;;;;;;13.82;7.93;;;;;;;;;;5014113;28;20034;-56
2021/03/29 03:19:50;;;;;;;14.05;8.55;;;;;;;;;;5013172;28;20394;-53
2021/03/29 03:22:16;;;;;;;16.10;9.13;;;;;;;;;;5013967;28;20139;-55
2021/03/29 03:24:43;;;;;;;13.27;8.38;;;;;;;;;;5013809;28;20031;-56
2021/03/29 03:27:09;;;;;;;15.73;8.90;;;;;;;;;;5013913;28;20022;-54
2021/03/29 03:29:43;;;;;;;22.30;11.70;;;;;;;;;;5013863;28;20057;-52
2021/03/29 03:32:16;;;;;;;24.85;12.02;;;;;;;;;;5013790;28;20378;-56
2021/03/29 03:34:42;;;;;;;21.98;11.70;;;;;;;;;;5013797;28;20157;-56
2021/03/29 03:37:11;;;;;;;18.27;10.02;;;;;;;;;;5013748;28;20144;-55
2021/03/29 03:39:38;;;;;;;15.98;8.95;;;;;;;;;;5013834;28;20580;-51
2021/03/29 03:42:06;;;;;;;18.52;10.55;;;;;;;;;;5013504;28;20120;-56
2021/03/29 03:44:32;;;;;;;21.75;10.95;;;;;;;;;;5013583;28;20469;-54
2021/03/29 03:46:58;;;;;;;18.65;10.93;;;;;;;;;;5013506;28;20150;-52
2021/03/29 03:49:24;;;;;;;21.40;11.50;;;;;;;;;;5013618;28;20481;-53
2021/03/29 03:51:51;;;;;;;22.42;11.38;;;;;;;;;;5013421;28;20077;-56
2021/03/29 03:54:20;;;;;;;21.25;12.35;;;;;;;;;;5013255;28;20025;-53
2021/03/29 03:56:47;;;;;;;23.33;12.23;;;;;;;;;;5013398;28;20832;-57
2021/03/29 03:59:13;;;;;;;16.55;10.60;;;;;;;;;;5013412;28;20491;-57
2021/03/29 04:01:58;;;;;;;20.75;11.10;;;;;;;;;;5013172;28;20040;-55
2021/03/29 04:04:24;;;;;;;23.67;12.00;;;;;;;;;;5013401;28;20026;-54
2021/03/29 04:06:50;;;;;;;23.83;12.60;;;;;;;;;;5013178;28;20056;-55
2021/03/29 04:09:17;;;;;;;24.85;12.55;;;;;;;;;;5012828;28;20124;-54
2021/03/29 04:11:50;;;;;;;32.92;15.18;;;;;;;;;;5013121;28;20444;-54
2021/03/29 04:14:16;;;;;;;26.88;12.57;;;;;;;;;;5013269;28;20431;-55
2021/03/29 04:16:42;;;;;;;25.75;12.55;;;;;;;;;;5013019;28;20030;-56
2021/03/29 04:19:08;;;;;;;15.60;9.57;;;;;;;;;;5012937;28;20156;-53
2021/03/29 04:21:34;;;;;;;15.23;8.82;;;;;;;;;;5012832;28;20030;-52
2021/03/29 04:24:00;;;;;;;15.85;9.15;;;;;;;;;;5012753;28;20030;-56
2021/03/29 04:26:26;;;;;;;12.07;7.57;;;;;;;;;;5012996;28;20022;-54
2021/03/29 04:28:52;;;;;;;15.18;8.70;;;;;;;;;;5012802;28;20033;-55
2021/03/29 04:31:18;;;;;;;14.77;9.23;;;;;;;;;;5012597;28;20482;-53
2021/03/29 04:33:45;;;;;;;15.20;8.27;;;;;;;;;;5012730;28;20034;-53
2021/03/29 04:36:11;;;;;;;19.52;10.20;;;;;;;;;;5012632;28;20109;-57
2021/03/29 04:38:37;;;;;;;26.42;12.57;;;;;;;;;;5012655;28;20033;-53
2021/03/29 04:41:05;;;;;;;31.08;13.93;;;;;;;;;;5012265;28;20489;-56
2021/03/29 04:43:31;;;;;;;31.00;15.18;;;;;;;;;;5012464;28;20354;-54
2021/03/29 04:45:57;;;;;;;30.23;13.82;;;;;;;;;;5012912;28;20025;-54
2021/03/29 04:48:23;;;;;;;24.83;12.55;;;;;;;;;;5012434;28;20501;-55
2021/03/29 04:50:50;;;;;;;20.70;10.75;;;;;;;;;;5012415;28;20029;-54
2021/03/29 04:53:16;;;;;;;20.40;11.77;;;;;;;;;;5012321;28;20034;-52
2021/03/29 04:55:42;;;;;;;16.80;10.98;;;;;;;;;;5012172;28;20037;-56
2021/03/29 04:58:08;;;;;;;14.85;8.68;;;;;;;;;;5012284;28;20108;-52
2021/03/29 05:00:34;;;;;;;13.98;8.77;;;;;;;;;;5012205;28;20030;-55
2021/03/29 05:03:00;;;;;;;14.45;7.90;;;;;;;;;;5012343;28;20049;-54
2021/03/29 05:05:26;;;;;;;12.23;7.80;;;;;;;;;;5012322;28;20052;-56
2021/03/29 05:07:52;;;;;;;13.02;8.13;;;;;;;;;;5011934;28;20042;-52
2021/03/29 05:10:18;;;;;;;16.60;8.85;;;;;;;;;;5011944;28;20236;-55
2021/03/29 05:12:44;;;;;;;13.05;8.38;;;;;;;;;;5012095;28;20022;-51
2021/03/29 05:15:11;;;;;;;16.98;9.23;;;;;;;;;;5012024;28;20033;-55
2021/03/29 05:17:37;;;;;;;16.35;8.93;;;;;;;;;;5011964;28;20044;-52
2021/03/29 05:20:04;;;;;;;14.15;8.85;;;;;;;;;;5011858;28;20022;-55
2021/03/29 05:22:31;;;;;;;15.98;8.77;;;;;;;;;;5011991;28;20037;-51
2021/03/29 05:24:57;;;;;;;15.05;8.30;;;;;;;;;;5011900;28;20030;-51
2021/03/29 05:27:23;;;;;;;12.18;7.78;;;;;;;;;;5012040;28;20026;-52
2021/03/29 05:29:49;;;;;;;13.18;8.43;;;;;;;;;;5011867;28;20080;-50
2021/03/29 05:32:17;;;;;;;14.43;8.85;;;;;;;;;;5011861;28;20021;-54
2021/03/29 05:34:43;;;;;;;14.15;7.70;;;;;;;;;;5009586;28;20030;-53
2021/03/29 05:37:09;;;;;;;12.50;7.95;;;;;;;;;;5011198;28;20065;-56
2021/03/29 05:39:36;;;;;;;12.13;7.68;;;;;;;;;;5010544;28;20026;-56
2021/03/29 05:42:02;;;;;;;12.20;7.28;;;;;;;;;;5011159;28;20037;-54
2021/03/29 05:44:28;;;;;;;12.45;7.57;;;;;;;;;;5014422;28;20033;-52
2021/03/29 05:46:54;;;;;;;13.55;7.72;;;;;;;;;;5014670;28;20384;-59
2021/03/29 05:49:20;;;;;;;9.75;6.43;;;;;;;;;;5012982;28;20026;-52
2021/03/29 05:51:46;;;;;;;13.02;7.32;;;;;;;;;;5014062;28;20041;-54
2021/03/29 05:54:13;;;;;;;13.05;7.45;;;;;;;;;;5014689;28;20060;-56
2021/03/29 05:56:40;;;;;;;11.90;7.32;;;;;;;;;;5014812;28;20105;-53
2021/03/29 05:59:19;;;;;;;13.52;7.18;;;;;;;;;;5015451;28;20556;-52
2021/03/29 06:01:46;;;;;;;14.18;6.93;;;;;;;;;;5015475;28;20069;-55
2021/03/29 06:04:13;;;;;;;12.27;7.20;;;;;;;;;;5013789;28;20018;-57
2021/03/29 06:06:40;;;;;;;11.95;7.35;;;;;;;;;;5014016;28;20032;-57
2021/03/29 06:09:07;;;;;;;12.00;7.40;;;;;;;;;;4996968;28;20408;-54
2021/03/29 06:11:34;;;;;;;14.93;8.65;;;;;;;;;;5015078;28;20049;-58
2021/03/29 06:14:08;;;;;;;11.98;7.35;;;;;;;;;;5015152;28;20053;-55
2021/03/29 06:16:51;;;;;;;19.55;9.82;;;;;;;;;;5015106;28;20026;-55
2021/03/29 06:19:35;;;;;;;23.35;11.50;;;;;;;;;;5015314;28;20026;-56
2021/03/29 06:22:07;;;;;;;19.90;10.23;;;;;;;;;;5014720;28;20038;-54
2021/03/29 06:24:52;;;;;;;20.75;10.00;;;;;;;;;;5015522;28;20018;-58
2021/03/29 06:27:18;;;;;;;19.33;10.27;;;;;;;;;;5015656;28;20052;-54
2021/03/29 06:29:44;;;;;;;15.07;8.98;;;;;;;;;;5015459;28;20026;-55
2021/03/29 06:32:10;;;;;;;18.48;10.32;;;;;;;;;;5015496;28;20026;-54
2021/03/29 06:34:36;;;;;;;15.38;8.65;;;;;;;;;;5015401;28;20026;-55
2021/03/29 06:37:06;;;;;;;21.10;11.05;;;;;;;;;;5015486;28;20033;-55
2021/03/29 06:39:35;;;;;;;19.25;11.13;;;;;;;;;;5014889;28;20022;-58
2021/03/29 06:42:01;;;;;;;23.70;11.98;;;;;;;;;;5015042;28;20057;-54
2021/03/29 06:44:30;;;;;;;27.52;13.65;;;;;;;;;;5015079;28;20029;-57
2021/03/29 06:47:08;;;;;;;30.75;14.18;;;;;;;;;;5015167;28;20037;-55
2021/03/29 06:49:38;;;;;;;30.98;13.82;;;;;;;;;;5015259;28;20065;-58
2021/03/29 06:52:23;;;;;;;27.20;13.32;;;;;;;;;;5015284;28;20029;-56
2021/03/29 06:54:49;;;;;;;26.13;13.23;;;;;;;;;;5014741;28;20026;-57
2021/03/29 06:57:26;;;;;;;25.13;12.88;;;;;;;;;;5015162;28;20381;-53
2021/03/29 06:59:52;;;;;;;27.25;11.75;;;;;;;;;;5015271;28;20372;-57
2021/03/29 07:02:35;;;;;;;21.27;11.73;;;;;;;;;;5014863;28;20036;-56
2021/03/29 07:05:01;;;;;;;25.75;14.07;;;;;;;;;;5013605;28;20108;-51
2021/03/29 07:07:27;;;;;;;18.02;9.95;;;;;;;;;;4996419;28;20033;-52
2021/03/29 07:09:54;;;;;;;13.40;8.00;;;;;;;;;;5011191;28;20045;-55
2021/03/29 07:12:21;;;;;;;17.33;9.25;;;;;;;;;;5012212;28;20026;-59
2021/03/29 07:14:51;;;;;;;17.85;9.50;;;;;;;;;;5012247;28;20030;-56
2021/03/29 07:17:19;;;;;;;15.57;7.65;;;;;;;;;;5014150;28;20041;-53
2021/03/29 07:19:45;;;;;;;14.55;7.95;;;;;;;;;;5014398;28;20109;-53
2021/03/29 07:22:14;;;;;;;12.05;6.68;;;;;;;;;;5013853;28;20496;-53
2021/03/29 07:24:40;;;;;;;12.60;7.18;;;;;;;;;;5014492;28;20477;-54
2021/03/29 07:27:07;;;;;;;15.20;6.90;;;;;;;;;;5014193;28;20036;-56
2021/03/29 07:29:37;;;;;;;14.65;7.50;;;;;;;;;;5011339;28;20026;-57
2021/03/29 07:32:04;;;;;;;14.57;7.43;;;;;;;;;;4989796;28;20033;-58
2021/03/29 07:34:49;;;;;;;14.23;7.20;;;;;;;;;;5011600;28;20432;-56
2021/03/29 07:37:26;;;;;;;10.63;6.65;;;;;;;;;;5011167;28;20026;-53
2021/03/29 07:39:52;;;;;;;11.98;6.10;;;;;;;;;;5010628;28;20104;-57
2021/03/29 07:42:24;;;;;;;10.27;5.97;;;;;;;;;;5011332;28;20045;-57
2021/03/29 07:44:53;;;;;;;12.63;6.23;;;;;;;;;;5010154;28;20492;-59
2021/03/29 07:47:38;;;;;;;8.27;4.40;;;;;;;;;;4992840;28;20264;-59
2021/03/29 07:50:04;;;;;;;12.25;5.43;;;;;;;;;;5009160;28;20030;-58
2021/03/29 07:52:32;;;;;;;12.43;6.50;;;;;;;;;;5011452;28;20362;-56
2021/03/29 07:55:00;;;;;;;15.32;5.38;;;;;;;;;;5012012;28;20038;-57
2021/03/29 07:57:44;;;;;;;12.20;4.93;;;;;;;;;;5013453;28;20030;-57
2021/03/29 08:00:25;;;;;;;10.95;4.68;;;;;;;;;;5013997;28;20113;-57
2021/03/29 08:02:55;;;;;;;12.02;6.00;;;;;;;;;;5013894;28;20041;-56
2021/03/29 08:05:37;;;;;;;11.65;4.35;;;;;;;;;;5012487;28;20469;-56
2021/03/29 08:08:03;;;;;;;10.35;4.85;;;;;;;;;;5011635;28;20060;-55
2021/03/29 08:10:48;;;;;;;9.75;4.82;;;;;;;;;;5010052;28;20329;-57
2021/03/29 08:13:34;;;;;;;10.88;5.97;;;;;;;;;;5010349;28;20018;-54
2021/03/29 08:16:00;;;;;;;7.93;3.78;;;;;;;;;;5008971;28;20080;-51
2021/03/29 08:18:27;;;;;;;8.75;3.97;;;;;;;;;;5008953;28;20025;-49
2021/03/29 08:20:54;;;;;;;9.00;4.47;;;;;;;;;;5011945;28;20593;-58
2021/03/29 08:23:33;;;;;;;14.75;5.57;;;;;;;;;;5013355;28;20120;-50
2021/03/29 08:26:06;;;;;;;7.63;4.10;;;;;;;;;;5013273;28;20029;-51
2021/03/29 08:28:50;;;;;;;6.10;3.00;;;;;;;;;;5009337;28;20121;-58
2021/03/29 08:31:35;;;;;;;7.68;3.40;;;;;;;;;;5013314;28;20064;-54
2021/03/29 08:34:01;;;;;;;10.15;4.70;;;;;;;;;;5013173;28;20022;-58
2021/03/29 08:36:28;;;;;;;7.53;3.20;;;;;;;;;;5013045;28;20116;-59
2021/03/29 08:38:54;;;;;;;5.55;2.78;;;;;;;;;;5012941;28;20050;-57
2021/03/29 08:41:21;;;;;;;6.93;3.20;;;;;;;;;;5012781;28;20040;-52
2021/03/29 08:43:48;;;;;;;7.22;3.75;;;;;;;;;;5013189;28;20056;-58
2021/03/29 08:46:14;;;;;;;8.30;4.20;;;;;;;;;;5012246;28;20038;-57
2021/03/29 08:48:45;;;;;;;10.25;4.15;;;;;;;;;;5011978;28;20037;-56
2021/03/29 08:51:29;;;;;;;6.80;3.42;;;;;;;;;;5012595;28;20025;-58
2021/03/29 08:54:06;;;;;;;9.48;3.85;;;;;;;;;;5010522;28;20025;-51
2021/03/29 08:56:41;;;;;;;10.80;5.00;;;;;;;;;;5006353;28;20018;-63
2021/03/29 08:59:08;;;;;;;12.13;5.22;;;;;;;;;;5001060;28;20458;-57
2021/03/29 09:01:35;;;;;;;9.95;5.50;;;;;;;;;;4993386;28;20126;-54
2021/03/29 09:04:06;;;;;;;12.63;4.50;;;;;;;;;;4993964;28;20022;-58
2021/03/29 09:06:32;;;;;;;10.38;4.90;;;;;;;;;;4993501;28;20490;-56
2021/03/29 09:08:59;;;;;;;11.10;5.40;;;;;;;;;;4992736;28;20367;-58
2021/03/29 09:11:25;;;;;;;9.98;4.72;;;;;;;;;;4993048;28;20019;-52
2021/03/29 09:13:54;;;;;;;7.03;3.63;;;;;;;;;;4993210;28;20047;-58
2021/03/29 09:16:26;;;;;;;9.73;3.60;;;;;;;;;;4992879;28;20026;-60
2021/03/29 09:18:52;;;;;;;8.88;3.10;;;;;;;;;;4992956;28;20022;-52
2021/03/29 09:21:25;;;;;;;10.25;3.70;;;;;;;;;;4992733;28;20046;-59
2021/03/29 09:23:51;;;;;;;12.23;4.10;;;;;;;;;;4992960;28;20023;-60
2021/03/29 09:26:25;;;;;;;9.68;3.58;;;;;;;;;;4993160;28;20039;-60
2021/03/29 09:28:53;;;;;;;11.68;5.05;;;;;;;;;;4992999;28;20042;-60
2021/03/29 09:31:25;;;;;;;10.70;5.03;;;;;;;;;;4992508;28;20182;-56
2021/03/29 09:33:52;;;;;;;7.47;3.58;;;;;;;;;;4991636;28;20022;-58
2021/03/29 09:36:19;;;;;;;9.60;4.35;;;;;;;;;;4990750;28;20689;-60
2021/03/29 09:38:50;;;;;;;7.97;3.70;;;;;;;;;;5004926;28;20029;-60
2021/03/29 09:41:17;;;;;;;9.70;5.00;;;;;;;;;;5011694;28;20037;-54
2021/03/29 09:43:44;;;;;;;9.30;4.10;;;;;;;;;;5012575;28;20080;-55
2021/03/29 09:46:10;;;;;;;8.43;3.90;;;;;;;;;;5012350;28;20022;-57
2021/03/29 09:48:36;;;;;;;6.63;3.08;;;;;;;;;;5012000;28;20030;-60
2021/03/29 09:51:03;;;;;;;7.07;3.38;;;;;;;;;;4994248;28;20353;-59
2021/03/29 09:53:33;;;;;;;9.27;3.83;;;;;;;;;;5012237;28;20543;-60
2021/03/29 09:56:02;;;;;;;7.03;3.33;;;;;;;;;;5012086;28;20084;-59
2021/03/29 09:58:30;;;;;;;12.68;4.03;;;;;;;;;;5012000;28;20100;-58
2021/03/29 10:01:00;;;;;;;9.80;4.13;;;;;;;;;;5012294;28;20026;-58
2021/03/29 10:03:26;;;;;;;5.25;3.00;;;;;;;;;;5012478;28;20046;-55
2021/03/29 10:05:53;;;;;;;8.38;3.70;;;;;;;;;;5012373;28;20137;-60
2021/03/29 10:08:32;;;;;;;7.53;3.80;;;;;;;;;;5011645;28;20042;-58
2021/03/29 10:11:08;;;;;;;10.50;4.90;;;;;;;;;;5012212;28;20069;-60
2021/03/29 10:13:35;;;;;;;11.38;5.35;;;;;;;;;;5011865;28;20026;-51
2021/03/29 10:16:20;;;;;;;7.25;3.92;;;;;;;;;;5012237;28;20377;-59
2021/03/29 10:18:47;;;;;;;9.82;5.20;;;;;;;;;;5012158;28;20109;-59
2021/03/29 10:21:13;;;;;;;11.48;5.50;;;;;;;;;;5011973;28;20477;-57
2021/03/29 10:23:42;;;;;;;7.28;3.80;;;;;;;;;;5011963;28;20018;-58
2021/03/29 10:26:19;;;;;;;5.95;3.28;;;;;;;;;;5012028;28;20477;-55
2021/03/29 10:28:55;;;;;;;7.22;3.67;;;;;;;;;;5013032;28;20026;-54
2021/03/29 10:31:22;;;;;;;9.45;4.28;;;;;;;;;;5015498;28;20026;-61
2021/03/29 10:33:48;;;;;;;5.50;3.05;;;;;;;;;;5015587;28;20475;-58
2021/03/29 10:36:15;;;;;;;6.20;2.78;;;;;;;;;;5015551;28;20052;-54
2021/03/29 10:38:41;;;;;;;7.97;2.97;;;;;;;;;;5015413;28;20134;-56
2021/03/29 10:41:07;;;;;;;6.15;2.70;;;;;;;;;;5015350;28;20037;-61
2021/03/29 10:43:33;;;;;;;6.35;3.10;;;;;;;;;;5014727;28;20026;-57
2021/03/29 10:46:00;;;;;;;7.18;3.33;;;;;;;;;;5015260;28;20466;-59
2021/03/29 10:48:26;;;;;;;8.55;4.38;;;;;;;;;;5015397;28;20068;-58
2021/03/29 10:50:52;;;;;;;8.43;3.85;;;;;;;;;;5015208;28;20061;-55
2021/03/29 10:53:18;;;;;;;7.53;3.70;;;;;;;;;;5015546;28;20366;-58
2021/03/29 10:55:44;;;;;;;6.63;3.60;;;;;;;;;;5015122;28;20029;-59
2021/03/29 10:58:10;;;;;;;6.13;3.50;;;;;;;;;;5015065;28;20108;-51
2021/03/29 11:00:36;;;;;;;9.23;4.60;;;;;;;;;;5015363;28;20376;-57
2021/03/29 11:03:02;;;;;;;7.65;4.40;;;;;;;;;;5015389;28;20034;-58
2021/03/29 11:05:28;;;;;;;9.07;4.78;;;;;;;;;;5014861;28;20359;-57
2021/03/29 11:07:54;;;;;;;8.27;4.45;;;;;;;;;;5014802;28;20140;-62
2021/03/29 11:10:20;;;;;;;6.72;3.65;;;;;;;;;;5015008;28;20030;-58
2021/03/29 11:12:47;;;;;;;6.95;3.38;;;;;;;;;;5014605;28;20029;-60
2021/03/29 11:15:13;;;;;;;6.90;3.67;;;;;;;;;;5014936;28;20485;-59
2021/03/29 11:17:39;;;;;;;6.80;3.40;;;;;;;;;;5014804;28;20557;-54
2021/03/29 11:20:06;;;;;;;7.25;4.05;;;;;;;;;;5014662;28;20032;-61
2021/03/29 11:22:32;;;;;;;8.70;3.33;;;;;;;;;;5014622;28;20489;-56
2021/03/29 11:24:59;;;;;;;8.85;4.22;;;;;;;;;;5014577;28;20028;-58
2021/03/29 11:27:25;;;;;;;7.82;3.65;;;;;;;;;;5014580;28;20670;-52
2021/03/29 11:29:51;;;;;;;7.75;3.75;;;;;;;;;;5014820;28;20022;-57
2021/03/29 11:32:18;;;;;;;7.05;3.63;;;;;;;;;;5014759;28;20131;-48
2021/03/29 11:34:44;;;;;;;7.38;3.92;;;;;;;;;;5014265;28;20026;-54
2021/03/29 11:37:10;;;;;;;7.10;3.97;;;;;;;;;;5014609;28;20029;-58
2021/03/29 11:39:37;;;;;;;5.72;3.28;;;;;;;;;;5013531;28;20026;-61
2021/03/29 11:42:04;;;;;;;7.97;2.80;;;;;;;;;;5013795;28;20038;-55
2021/03/29 11:44:30;;;;;;;6.28;3.35;;;;;;;;;;5013555;28;20030;-62
2021/03/29 11:46:57;;;;;;;8.38;2.72;;;;;;;;;;5014365;28;20080;-57
2021/03/29 11:49:23;;;;;;;4.72;2.42;;;;;;;;;;5014532;28;20022;-56
2021/03/29 11:51:49;;;;;;;8.80;3.60;;;;;;;;;;5014128;28;20025;-55
2021/03/29 11:54:15;;;;;;;9.50;4.80;;;;;;;;;;5014247;28;20022;-62
2021/03/29 11:56:41;;;;;;;10.63;5.30;;;;;;;;;;5014131;28;20061;-56
2021/03/29 11:59:07;;;;;;;5.00;2.90;;;;;;;;;;5014034;28;20361;-61
2021/03/29 12:07:18;;;;;;;4.75;2.20;;;;;;;;;;4953312;29;19910;-54
2021/03/29 12:12:31;;;;;;;7.35;2.80;;;;;;;;;;4992652;28;20169;-61
2021/03/29 12:14:57;;;;;;;12.60;4.30;;;;;;;;;;5013401;28;20069;-62
2021/03/29 12:17:23;;;;;;;6.28;2.70;;;;;;;;;;5013977;28;20053;-51
2021/03/29 12:19:50;;;;;;;4.40;2.08;;;;;;;;;;5013953;28;20072;-48
2021/03/29 12:22:26;;;;;;;6.55;2.72;;;;;;;;;;5013887;28;20038;-61
2021/03/29 12:24:54;;;;;;;5.53;2.90;;;;;;;;;;5013734;28;20028;-61
2021/03/29 12:27:21;;;;;;;7.13;3.67;;;;;;;;;;5013583;28;20080;-61
2021/03/29 12:29:48;;;;;;;7.60;3.40;;;;;;;;;;5013274;28;20069;-58
2021/03/29 12:32:17;;;;;;;6.88;3.50;;;;;;;;;;5013139;28;20026;-55
2021/03/29 12:34:45;;;;;;;5.85;2.85;;;;;;;;;;5012672;28;20026;-60
2021/03/29 12:37:13;;;;;;;8.05;3.65;;;;;;;;;;5012586;28;20037;-57
2021/03/29 12:39:43;;;;;;;7.35;3.50;;;;;;;;;;5013582;28;20048;-61
2021/03/29 12:42:12;;;;;;;6.80;3.70;;;;;;;;;;5013304;28;20049;-58
2021/03/29 12:44:38;;;;;;;5.88;3.30;;;;;;;;;;5013513;28;20034;-57
2021/03/29 12:47:08;;;;;;;7.45;2.53;;;;;;;;;;5013560;28;20485;-57
2021/03/29 12:49:35;;;;;;;5.70;2.47;;;;;;;;;;5013180;28;20619;-60
2021/03/29 12:52:04;;;;;;;3.97;2.15;;;;;;;;;;5012683;28;20022;-58
2021/03/29 12:54:33;;;;;;;7.45;2.45;;;;;;;;;;5013151;28;20084;-59
2021/03/29 12:57:00;;;;;;;5.25;2.45;;;;;;;;;;5013021;28;20105;-60
2021/03/29 12:59:30;;;;;;;4.60;2.08;;;;;;;;;;5012995;28;20026;-53
2021/03/29 13:01:57;;;;;;;5.28;2.58;;;;;;;;;;5012786;28;20034;-56
2021/03/29 13:04:28;;;;;;;4.80;2.00;;;;;;;;;;5013128;28;20112;-59
2021/03/29 13:09:54;;;;;;;6.68;2.65;;;;;;;;;;5012637;28;20069;-59
2021/03/29 13:12:21;;;;;;;5.93;2.67;;;;;;;;;;5012762;28;20088;-60
2021/03/29 13:15:06;;;;;;;4.15;1.80;;;;;;;;;;5012511;28;20117;-56
2021/03/29 13:17:36;;;;;;;5.43;2.70;;;;;;;;;;5012879;28;20420;-61
2021/03/29 13:20:02;;;;;;;6.00;2.60;;;;;;;;;;5012744;28;20022;-59
2021/03/29 13:22:28;;;;;;;6.40;3.75;;;;;;;;;;5012683;28;20026;-59
2021/03/29 13:24:54;;;;;;;6.00;2.78;;;;;;;;;;5012533;28;20445;-45
2021/03/29 13:27:21;;;;;;;6.60;2.60;;;;;;;;;;5012500;28;20030;-57
2021/03/29 13:29:47;;;;;;;5.32;2.85;;;;;;;;;;5012523;28;20061;-62
2021/03/29 13:32:14;;;;;;;7.97;2.58;;;;;;;;;;5012699;28;20022;-59
2021/03/29 13:34:42;;;;;;;10.63;3.35;;;;;;;;;;5012479;28;20026;-61
2021/03/29 13:37:08;;;;;;;5.38;2.42;;;;;;;;;;5012487;28;20482;-59
2021/03/29 13:39:38;;;;;;;5.80;2.20;;;;;;;;;;4995179;28;20041;-57
2021/03/29 13:42:05;;;;;;;3.78;1.75;;;;;;;;;;5012687;28;20397;-55
2021/03/29 13:44:31;;;;;;;5.32;1.83;;;;;;;;;;4994872;28;20026;-59
2021/03/29 13:46:57;;;;;;;10.68;2.40;;;;;;;;;;5012528;28;20057;-58
2021/03/29 13:49:26;;;;;;;5.13;2.33;;;;;;;;;;5012803;28;20101;-57
2021/03/29 13:51:54;;;;;;;5.45;2.28;;;;;;;;;;5013038;28;20030;-57
2021/03/29 13:54:21;;;;;;;5.82;2.40;;;;;;;;;;5012671;28;20022;-61
2021/03/29 13:56:47;;;;;;;5.72;2.10;;;;;;;;;;5012395;28;20060;-59
2021/03/29 13:59:13;;;;;;;6.13;2.35;;;;;;;;;;5012132;28;20022;-57
2021/03/29 14:01:39;;;;;;;7.05;2.67;;;;;;;;;;5012109;28;20033;-61
2021/03/29 14:04:06;;;;;;;9.13;2.55;;;;;;;;;;5013996;28;20033;-58
2021/03/29 14:06:32;;;;;;;4.60;2.15;;;;;;;;;;5016031;28;20103;-61
2021/03/29 14:08:58;;;;;;;4.50;2.22;;;;;;;;;;5016152;28;20057;-61
2021/03/29 14:11:24;;;;;;;6.00;2.85;;;;;;;;;;5016123;28;20028;-55
2021/03/29 14:13:51;;;;;;;6.22;3.05;;;;;;;;;;5016061;28;20536;-60
2021/03/29 14:16:17;;;;;;;5.88;2.65;;;;;;;;;;5015952;28;20080;-52
2021/03/29 14:18:45;;;;;;;4.68;2.28;;;;;;;;;;5015993;28;20022;-62
2021/03/29 14:21:16;;;;;;;7.55;2.42;;;;;;;;;;5015831;28;20048;-59
2021/03/29 14:23:42;;;;;;;6.20;2.25;;;;;;;;;;5016027;28;20026;-60
2021/03/29 14:26:12;;;;;;;6.20;3.00;;;;;;;;;;5015676;28;20416;-63
2021/03/29 14:28:41;;;;;;;6.90;3.10;;;;;;;;;;5015958;28;20049;-50
2021/03/29 14:31:09;;;;;;;8.35;3.00;;;;;;;;;;5015813;28;20541;-58
2021/03/29 14:33:36;;;;;;;8.18;4.15;;;;;;;;;;5015714;28;20034;-52
2021/03/29 14:41:26;;;;;;;7.07;3.17;;;;;;;;;;5015732;28;20034;-53
2021/03/29 14:46:33;;;;;;;7.50;3.72;;;;;;;;;;5015558;28;20026;-57
2021/03/29 14:48:59;;;;;;;5.93;2.75;;;;;;;;;;5015935;28;20355;-61
2021/03/29 14:51:27;;;;;;;6.03;2.60;;;;;;;;;;5015767;28;20420;-62
2021/03/29 14:53:53;;;;;;;5.50;2.10;;;;;;;;;;5015421;28;20026;-52
2021/03/29 14:56:19;;;;;;;6.40;2.63;;;;;;;;;;5015351;28;20469;-62
2021/03/29 14:58:46;;;;;;;7.88;2.30;;;;;;;;;;5015402;28;20025;-56